SBSP/CGH METAR and TAF weather

Enter ICAO airport designator
Station Type Date Time Source
SBSP METAR 2021/05/17 23:00 UTC NOAA

SBSP 172300Z 22003KT 9999 BKN046 21/12 Q1020


Station Type Date Time Source
SBSP Decoded METAR 2021/05/17 23:00 UTC NOAA

Sao Paulo/Congonhas Aeroporto, Brazil (SBSP) 23-37S 046-39W 802M
May 17, 2021 - 07:00 PM EDT / 2021.05.17 2300 UTC
Wind: from the SW (220 degrees) at 3 MPH (3 KT):0
Visibility: greater than 7 mile(s):0
Sky conditions: mostly cloudy
Temperature: 69 F (21 C)
Dew Point: 53 F (12 C)
Relative Humidity: 56%
Pressure (altimeter): 30.12 in. Hg (1020 hPa)
ob: SBSP 172300Z 22003KT 9999 BKN046 21/12 Q1020
cycle: 23

Station Type Date Time Source
SBSP TAF 2021/05/17 18:24 UTC NOAA

TAF SBSP 171500Z 1718/1806 30006KT 9999 SCT045 TX24/1718Z TN16/1805Z
BECMG 1720/1722 14004KT BKN011
BECMG 1801/1803 8000 NSC
RMK PGF

Example: see airport list